createdAt,value
2024-04-16T00:01:39.836Z,16.58
2024-04-16T00:04:25.978Z,16.70
2024-04-16T00:07:12.007Z,15.10
2024-04-16T00:09:58.109Z,13.48
2024-04-16T00:12:44.120Z,16.83
2024-04-16T00:15:30.618Z,16.05
2024-04-16T00:18:16.506Z,17.95
2024-04-16T00:21:02.529Z,18.27
2024-04-16T00:23:48.540Z,13.52
2024-04-16T00:26:34.778Z,13.93
2024-04-16T00:29:21.720Z,15.65
2024-04-16T00:32:07.702Z,12.27
2024-04-16T00:34:54.317Z,14.27
2024-04-16T00:37:40.152Z,15.45
2024-04-16T00:40:26.286Z,13.63
2024-04-16T00:43:20.011Z,10.90
2024-04-16T00:46:06.529Z,14.13
2024-04-16T00:48:52.657Z,9.93
2024-04-16T00:51:38.923Z,13.15
2024-04-16T00:54:26.374Z,6.80
2024-04-16T00:57:12.673Z,10.00
2024-04-16T01:00:00.425Z,7.03
2024-04-16T01:02:46.490Z,11.18
2024-04-16T01:05:33.882Z,13.02
2024-04-16T01:08:19.935Z,7.32
2024-04-16T01:11:08.431Z,5.10
2024-04-16T01:13:58.399Z,4.88
2024-04-16T01:16:45.018Z,9.80
2024-04-16T01:19:31.205Z,11.00
2024-04-16T01:22:17.099Z,8.85
2024-04-16T01:25:03.192Z,7.07
2024-04-16T01:27:49.456Z,5.03
2024-04-16T01:30:35.682Z,4.18
2024-04-16T01:33:21.967Z,7.90
2024-04-16T01:36:08.112Z,6.32
2024-04-16T01:38:54.015Z,4.13
2024-04-16T01:41:39.829Z,7.80
2024-04-16T01:44:25.558Z,5.60
2024-04-16T01:47:11.788Z,5.93
2024-04-16T01:49:57.936Z,3.83
2024-04-16T01:52:44.065Z,6.65
2024-04-16T01:55:30.031Z,6.75
2024-04-16T01:58:16.072Z,6.03
2024-04-16T02:01:02.425Z,5.55
2024-04-16T02:03:48.697Z,5.65
2024-04-16T02:06:35.662Z,4.93
2024-04-16T02:09:21.421Z,3.20
2024-04-16T02:12:07.504Z,4.35
2024-04-16T02:14:53.239Z,4.72
2024-04-16T02:17:39.262Z,4.78
2024-04-16T02:20:25.639Z,5.05
2024-04-16T02:23:12.043Z,4.22
2024-04-16T02:25:58.505Z,7.35
2024-04-16T02:28:44.458Z,7.35
2024-04-16T02:31:31.774Z,8.70
2024-04-16T02:34:18.415Z,6.72
2024-04-16T02:37:05.077Z,10.57
2024-04-16T02:39:50.770Z,13.07
2024-04-16T02:42:37.087Z,11.57
2024-04-16T02:45:23.419Z,10.80
2024-04-16T02:48:09.267Z,9.13
2024-04-16T02:50:55.995Z,6.30
2024-04-16T02:53:42.342Z,2.90
2024-04-16T02:56:28.284Z,1.67
2024-04-16T02:59:14.536Z,1.63
2024-04-16T03:02:02.374Z,2.15
2024-04-16T03:04:48.846Z,1.33
2024-04-16T03:07:35.123Z,1.88
2024-04-16T03:10:21.146Z,2.83
2024-04-16T03:13:07.448Z,2.13
2024-04-16T03:15:53.418Z,1.30
2024-04-16T03:18:39.751Z,0.45
2024-04-16T03:21:26.320Z,4.70
2024-04-16T03:24:18.005Z,0.82
2024-04-16T03:27:04.304Z,2.08
2024-04-16T03:29:50.270Z,1.15
2024-04-16T03:32:36.470Z,0.93
2024-04-16T03:35:22.588Z,1.50
2024-04-16T03:38:08.394Z,2.70
2024-04-16T03:41:03.967Z,3.30
2024-04-16T03:43:55.818Z,2.10
2024-04-16T03:46:42.870Z,1.27
2024-04-16T03:49:29.921Z,3.03
2024-04-16T03:52:16.663Z,6.68
2024-04-16T03:55:03.236Z,0.85
2024-04-16T03:57:49.058Z,1.10
2024-04-16T04:00:53.975Z,1.42
2024-04-16T04:03:41.060Z,1.85
2024-04-16T04:06:27.392Z,1.00
2024-04-16T04:09:13.182Z,1.35
2024-04-16T04:11:58.918Z,1.25
2024-04-16T04:14:45.202Z,1.83
2024-04-16T04:17:31.321Z,1.75
2024-04-16T04:20:17.487Z,0.82
2024-04-16T04:23:03.784Z,0.80
2024-04-16T04:25:49.801Z,3.50
2024-04-16T04:28:35.993Z,0.43
2024-04-16T04:31:22.006Z,1.73
2024-04-16T04:34:07.991Z,0.75
2024-04-16T04:36:54.230Z,2.47
2024-04-16T04:39:40.251Z,1.10
2024-04-16T04:42:27.552Z,1.23
2024-04-16T04:45:13.970Z,1.05
2024-04-16T04:48:00.157Z,4.20
2024-04-16T04:50:46.008Z,3.70
2024-04-16T04:53:31.857Z,2.63
2024-04-16T04:56:18.107Z,3.42
2024-04-16T04:59:04.257Z,2.42
2024-04-16T05:01:50.745Z,4.07
2024-04-16T05:04:37.260Z,9.48
2024-04-16T05:07:22.941Z,5.32
2024-04-16T05:10:10.373Z,3.80
2024-04-16T05:12:56.739Z,4.88
2024-04-16T05:15:42.852Z,4.07
2024-04-16T05:18:29.189Z,2.70
2024-04-16T05:21:15.177Z,1.77
2024-04-16T05:24:03.475Z,2.63
2024-04-16T05:26:49.761Z,2.35
2024-04-16T05:29:35.910Z,5.53
2024-04-16T05:32:22.130Z,2.33
2024-04-16T05:35:08.240Z,4.38
2024-04-16T05:37:53.867Z,4.07
2024-04-16T05:40:39.846Z,1.00
2024-04-16T05:43:25.721Z,3.55
2024-04-16T05:46:12.554Z,4.88
2024-04-16T05:49:00.305Z,5.43
2024-04-16T05:51:46.405Z,2.05
2024-04-16T05:54:33.946Z,3.42
2024-04-16T05:57:20.226Z,5.05
2024-04-16T06:00:07.114Z,3.38
2024-04-16T06:02:53.228Z,3.78
2024-04-16T06:05:39.216Z,4.15
2024-04-16T06:08:25.023Z,3.65
2024-04-16T06:11:11.275Z,8.88
2024-04-16T06:13:57.232Z,4.13
2024-04-16T06:16:43.037Z,1.90
2024-04-16T06:19:29.345Z,3.45
2024-04-16T06:22:15.157Z,4.03
2024-04-16T06:25:01.223Z,2.30
2024-04-16T06:27:49.948Z,4.15
2024-04-16T06:30:35.822Z,3.58
2024-04-16T06:33:22.178Z,2.40
2024-04-16T06:36:08.936Z,3.65
2024-04-16T06:38:55.215Z,6.43
2024-04-16T06:41:41.235Z,2.97
2024-04-16T06:44:27.274Z,4.30
2024-04-16T06:47:13.451Z,9.43
2024-04-16T06:49:59.410Z,5.93
2024-04-16T06:52:45.447Z,4.88
2024-04-16T06:55:34.403Z,4.68
2024-04-16T06:58:20.545Z,10.93
2024-04-16T07:01:06.599Z,7.20
2024-04-16T07:03:52.633Z,4.10
2024-04-16T07:06:38.730Z,2.25
2024-04-16T07:09:24.865Z,4.32
2024-04-16T07:12:10.974Z,6.38
2024-04-16T07:14:57.160Z,3.97
2024-04-16T07:17:43.236Z,6.20
2024-04-16T07:20:29.225Z,4.53
2024-04-16T07:23:15.431Z,4.07
2024-04-16T07:26:04.873Z,5.38
2024-04-16T07:28:52.528Z,7.50
2024-04-16T07:31:44.775Z,5.22
2024-04-16T07:34:33.801Z,8.02
2024-04-16T07:37:20.720Z,5.50
2024-04-16T07:40:07.339Z,5.47
2024-04-16T07:42:55.694Z,3.17
2024-04-16T07:45:41.923Z,5.82
2024-04-16T07:48:27.519Z,8.15
2024-04-16T07:51:13.460Z,5.40
2024-04-16T07:53:59.715Z,8.00
2024-04-16T07:56:45.686Z,6.90
2024-04-16T07:59:32.009Z,7.90
2024-04-16T08:02:18.257Z,5.95
2024-04-16T08:05:05.423Z,5.70
2024-04-16T08:07:52.553Z,3.05
2024-04-16T08:10:38.732Z,5.63
2024-04-16T08:13:26.673Z,4.70
2024-04-16T08:16:13.286Z,5.55
2024-04-16T08:18:59.636Z,4.50
2024-04-16T08:21:45.976Z,5.00
2024-04-16T08:24:33.368Z,4.80
2024-04-16T08:27:23.948Z,4.45
2024-04-16T08:30:11.089Z,5.65
2024-04-16T08:32:57.123Z,8.20
2024-04-16T08:35:43.549Z,5.28
2024-04-16T08:38:29.825Z,5.90
2024-04-16T08:41:15.536Z,5.25
2024-04-16T08:44:04.202Z,4.40
2024-04-16T08:46:52.036Z,4.00
2024-04-16T08:49:42.914Z,3.67
2024-04-16T08:52:30.619Z,4.38
2024-04-16T08:55:20.351Z,2.97
2024-04-16T08:58:08.934Z,4.47
2024-04-16T09:00:57.490Z,3.28
2024-04-16T09:03:51.118Z,4.38
2024-04-16T09:06:38.080Z,4.00
2024-04-16T09:09:24.193Z,3.90
2024-04-16T09:12:11.431Z,3.88
2024-04-16T09:14:57.626Z,4.65
2024-04-16T09:18:01.825Z,2.58
2024-04-16T09:20:48.793Z,2.17
2024-04-16T09:23:35.114Z,6.97
2024-04-16T09:26:21.145Z,2.60
2024-04-16T09:29:07.440Z,2.28
2024-04-16T09:32:04.469Z,3.08
2024-04-16T09:34:50.556Z,4.15
2024-04-16T09:37:39.687Z,4.75
2024-04-16T09:40:31.192Z,5.13
2024-04-16T09:43:19.057Z,6.68
2024-04-16T09:46:05.333Z,4.18
2024-04-16T09:48:53.469Z,6.72
2024-04-16T09:51:40.499Z,4.97
2024-04-16T09:54:26.822Z,8.23
2024-04-16T09:57:13.163Z,1.42
2024-04-16T10:00:01.946Z,5.28
2024-04-16T10:02:49.417Z,3.50
2024-04-16T10:05:35.140Z,4.78
2024-04-16T10:08:22.264Z,3.83
2024-04-16T10:11:14.227Z,4.18
2024-04-16T10:14:03.672Z,4.05
2024-04-16T10:16:50.129Z,4.20
2024-04-16T10:19:35.914Z,6.68
2024-04-16T10:22:21.865Z,5.30
2024-04-16T10:25:07.991Z,5.28
2024-04-16T10:27:54.024Z,2.15
2024-04-16T10:30:40.671Z,5.82
2024-04-16T10:33:37.245Z,5.03
2024-04-16T10:36:23.311Z,3.22
2024-04-16T10:39:14.400Z,3.75
2024-04-16T10:42:05.530Z,3.72
2024-04-16T10:44:52.424Z,3.92
2024-04-16T10:47:38.809Z,4.88
2024-04-16T10:50:24.604Z,4.95
2024-04-16T10:53:14.983Z,3.55
2024-04-16T10:56:01.125Z,2.33
2024-04-16T10:58:47.582Z,8.02
2024-04-16T11:01:43.430Z,2.53
2024-04-16T11:04:32.151Z,7.63
2024-04-16T11:07:18.741Z,9.35
2024-04-16T11:10:06.699Z,10.13
2024-04-16T11:12:54.003Z,2.80
2024-04-16T11:15:41.744Z,3.38
2024-04-16T11:18:31.700Z,8.30
2024-04-16T11:21:18.209Z,0.93
2024-04-16T11:24:05.696Z,1.73
2024-04-16T11:26:51.801Z,1.27
2024-04-16T11:29:37.747Z,1.10
2024-04-16T11:32:26.319Z,3.70
2024-04-16T11:35:13.237Z,1.45
2024-04-16T11:38:00.661Z,3.85
2024-04-16T11:40:50.168Z,2.13
2024-04-16T11:43:40.134Z,3.80
2024-04-16T11:46:26.044Z,1.90
2024-04-16T11:49:13.151Z,1.73
2024-04-16T11:52:03.971Z,0.82
2024-04-16T11:54:49.707Z,1.05
2024-04-16T11:57:35.997Z,1.50
2024-04-16T12:00:21.951Z,0.60
2024-04-16T12:03:10.365Z,0.70
2024-04-16T12:05:56.115Z,0.35
2024-04-16T12:08:42.234Z,1.27
2024-04-16T12:11:28.313Z,2.42
2024-04-16T12:14:14.399Z,0.80
2024-04-16T12:17:00.858Z,0.60
2024-04-16T12:19:47.703Z,1.60
2024-04-16T12:22:33.548Z,3.53
2024-04-16T12:25:19.729Z,1.75
2024-04-16T12:28:05.930Z,0.88
2024-04-16T12:30:51.876Z,3.42
2024-04-16T12:33:39.022Z,0.98
2024-04-16T12:36:25.304Z,0.57
2024-04-16T12:39:12.714Z,1.55
2024-04-16T12:42:00.609Z,1.23
2024-04-16T12:44:46.658Z,2.42
2024-04-16T12:47:32.548Z,3.13
2024-04-16T12:50:19.752Z,2.25
2024-04-16T12:53:05.854Z,7.97
2024-04-16T12:55:53.184Z,1.65
2024-04-16T12:58:39.390Z,2.15
2024-04-16T13:01:25.118Z,1.85
2024-04-16T13:04:11.068Z,1.05
2024-04-16T13:06:57.081Z,0.73
2024-04-16T13:09:43.361Z,3.95
2024-04-16T13:12:29.314Z,3.97
2024-04-16T13:15:15.137Z,1.75
2024-04-16T13:18:01.673Z,6.32
2024-04-16T13:20:57.181Z,4.75
2024-04-16T13:23:42.981Z,1.63
2024-04-16T13:26:29.537Z,1.77
2024-04-16T13:29:15.685Z,1.75
2024-04-16T13:32:01.620Z,2.75
2024-04-16T13:34:50.892Z,2.08
2024-04-16T13:37:37.962Z,1.13
2024-04-16T13:40:26.200Z,3.95
2024-04-16T13:43:15.794Z,2.45
2024-04-16T13:46:01.873Z,3.05
2024-04-16T13:48:47.834Z,1.42
2024-04-16T13:51:33.776Z,1.85
2024-04-16T13:54:20.993Z,1.25
2024-04-16T13:57:06.941Z,1.58
2024-04-16T13:59:53.600Z,1.80
2024-04-16T14:02:39.167Z,1.70
2024-04-16T14:05:25.931Z,1.17
2024-04-16T14:08:14.171Z,2.53
2024-04-16T14:11:00.290Z,2.13
2024-04-16T14:13:45.920Z,1.25
2024-04-16T14:16:32.469Z,1.63
2024-04-16T14:19:20.826Z,1.58
2024-04-16T14:22:07.249Z,1.48
2024-04-16T14:24:53.174Z,3.75
2024-04-16T14:27:39.120Z,4.32
2024-04-16T14:30:28.386Z,2.25
2024-04-16T14:33:14.607Z,2.03
2024-04-16T14:36:01.289Z,1.75
2024-04-16T14:38:47.007Z,1.27
2024-04-16T14:41:32.815Z,1.02
2024-04-16T14:44:19.087Z,3.30
2024-04-16T14:47:05.569Z,4.38
2024-04-16T14:49:51.656Z,3.78
2024-04-16T14:52:37.584Z,0.95
2024-04-16T14:55:23.383Z,4.93
2024-04-16T14:58:09.386Z,2.40
2024-04-16T15:00:57.018Z,3.22
2024-04-16T15:03:43.049Z,4.35
2024-04-16T15:06:29.311Z,2.53
2024-04-16T15:09:16.719Z,2.70
2024-04-16T15:12:04.031Z,6.72
2024-04-16T15:14:49.917Z,3.60
2024-04-16T15:17:35.595Z,2.60
2024-04-16T15:20:21.430Z,3.65
2024-04-16T15:23:09.453Z,3.28
2024-04-16T15:25:55.760Z,9.85
2024-04-16T15:28:41.689Z,5.90
2024-04-16T15:31:27.394Z,6.28
2024-04-16T15:34:13.172Z,7.20
2024-04-16T15:36:59.166Z,9.57
2024-04-16T15:39:45.213Z,5.38
2024-04-16T15:42:31.367Z,7.03
2024-04-16T15:45:17.300Z,4.60
2024-04-16T15:48:03.193Z,7.18
2024-04-16T15:50:50.780Z,7.00
2024-04-16T15:53:40.299Z,6.43
2024-04-16T15:56:27.035Z,7.20
2024-04-16T15:59:12.918Z,7.78
2024-04-16T16:01:58.692Z,4.53
2024-04-16T16:04:44.515Z,4.13
2024-04-16T16:07:30.627Z,3.28
2024-04-16T16:10:16.969Z,6.47
2024-04-16T16:13:05.475Z,3.85
2024-04-16T16:15:51.355Z,3.78
2024-04-16T16:18:38.717Z,5.38
2024-04-16T16:21:24.761Z,4.60
2024-04-16T16:24:10.932Z,5.10
2024-04-16T16:26:56.778Z,4.20
2024-04-16T16:29:43.750Z,5.70
2024-04-16T16:32:29.735Z,3.65
2024-04-16T16:35:16.119Z,5.72
2024-04-16T16:38:01.780Z,5.00
2024-04-16T16:40:50.126Z,7.88
2024-04-16T16:43:36.323Z,6.22
2024-04-16T16:46:22.265Z,3.78
2024-04-16T16:49:11.153Z,7.28
2024-04-16T16:51:59.566Z,5.93
2024-04-16T16:54:45.866Z,8.23
2024-04-16T16:57:31.647Z,8.23
2024-04-16T17:00:17.753Z,6.53
2024-04-16T17:03:04.080Z,10.45
2024-04-16T17:05:51.137Z,7.35
2024-04-16T17:08:37.383Z,5.60
2024-04-16T17:11:23.011Z,9.23
2024-04-16T17:14:08.904Z,6.85
2024-04-16T17:16:54.981Z,7.60
2024-04-16T17:19:44.620Z,4.13
2024-04-16T17:22:33.611Z,4.32
2024-04-16T17:25:19.661Z,5.32
2024-04-16T17:28:05.691Z,7.30
2024-04-16T17:30:53.919Z,4.78
2024-04-16T17:33:40.290Z,5.55
2024-04-16T17:36:26.314Z,3.78
2024-04-16T17:39:12.574Z,5.53
2024-04-16T17:41:58.561Z,4.50
2024-04-16T17:44:44.460Z,5.13
2024-04-16T17:47:30.575Z,6.63
2024-04-16T17:50:21.036Z,8.57
2024-04-16T17:53:07.070Z,5.95
2024-04-16T17:55:54.421Z,5.25
2024-04-16T17:58:43.397Z,5.95
2024-04-16T18:01:29.780Z,4.47
2024-04-16T18:04:16.060Z,4.22
2024-04-16T18:07:04.136Z,8.15
2024-04-16T18:09:50.234Z,12.45
2024-04-16T18:12:36.290Z,5.93
2024-04-16T18:15:24.597Z,6.82
2024-04-16T18:18:10.803Z,6.68
2024-04-16T18:20:57.625Z,7.97
2024-04-16T18:23:43.752Z,6.72
2024-04-16T18:26:29.785Z,5.35
2024-04-16T18:29:15.695Z,5.70
2024-04-16T18:32:01.469Z,5.38
2024-04-16T18:34:47.751Z,6.03
2024-04-16T18:37:33.989Z,5.63
2024-04-16T18:40:21.225Z,9.30
2024-04-16T18:43:07.184Z,6.43
2024-04-16T18:45:52.989Z,7.00
2024-04-16T18:48:39.259Z,9.75
2024-04-16T18:51:25.781Z,9.93
2024-04-16T18:54:11.925Z,5.65
2024-04-16T18:57:04.749Z,9.50
2024-04-16T18:59:53.207Z,10.05
2024-04-16T19:02:40.299Z,10.98
2024-04-16T19:05:26.310Z,9.73
2024-04-16T19:08:13.298Z,6.78
2024-04-16T19:11:00.204Z,5.93
2024-04-16T19:13:46.342Z,6.70
2024-04-16T19:16:32.749Z,6.00
2024-04-16T19:19:18.997Z,7.80
2024-04-16T19:22:04.999Z,5.72
2024-04-16T19:24:51.349Z,7.18
2024-04-16T19:27:37.771Z,10.02
2024-04-16T19:30:23.655Z,5.22
2024-04-16T19:33:09.795Z,5.95
2024-04-16T19:35:55.780Z,8.27
2024-04-16T19:38:41.721Z,6.68
2024-04-16T19:41:27.997Z,9.30
2024-04-16T19:44:14.053Z,9.02
2024-04-16T19:47:00.144Z,8.40
2024-04-16T19:49:46.192Z,7.63
2024-04-16T19:52:32.468Z,12.45
2024-04-16T19:55:19.683Z,10.38
2024-04-16T19:58:07.077Z,9.40
2024-04-16T20:00:52.882Z,14.57
2024-04-16T20:03:38.898Z,11.57
2024-04-16T20:06:24.937Z,13.80
2024-04-16T20:09:10.759Z,12.90
2024-04-16T20:11:57.896Z,10.55
2024-04-16T20:14:46.192Z,9.27
2024-04-16T20:20:20.034Z,11.95
2024-04-16T20:23:05.849Z,9.35
2024-04-16T20:26:10.506Z,14.95
2024-04-16T20:28:56.842Z,6.30
2024-04-16T20:31:42.618Z,7.60
2024-04-16T20:34:30.989Z,10.00
2024-04-16T20:37:22.147Z,5.65
2024-04-16T20:40:09.185Z,6.72
2024-04-16T20:42:55.221Z,4.88
2024-04-16T20:45:43.613Z,5.13
2024-04-16T20:48:30.019Z,5.75
2024-04-16T20:51:18.222Z,4.13
2024-04-16T20:54:04.258Z,3.08
2024-04-16T20:56:50.996Z,4.28
2024-04-16T20:59:39.506Z,5.18
2024-04-16T21:02:26.114Z,5.15
2024-04-16T21:05:11.976Z,4.53
2024-04-16T21:08:00.759Z,6.35
2024-04-16T21:10:47.381Z,3.65
2024-04-16T21:13:34.144Z,6.20
2024-04-16T21:16:20.122Z,2.75
2024-04-16T21:19:05.807Z,3.10
2024-04-16T21:21:52.676Z,3.50
2024-04-16T21:24:38.627Z,2.88
2024-04-16T21:27:24.716Z,3.75
2024-04-16T21:30:11.452Z,2.40
2024-04-16T21:32:57.546Z,2.42
2024-04-16T21:35:44.731Z,2.75
2024-04-16T21:38:31.824Z,2.25
2024-04-16T21:41:17.894Z,2.72
2024-04-16T21:44:04.414Z,1.95
2024-04-16T21:46:50.425Z,2.42
2024-04-16T21:49:36.664Z,3.78
2024-04-16T21:52:22.948Z,3.08
2024-04-16T21:55:08.951Z,3.53
2024-04-16T21:57:55.014Z,2.08
2024-04-16T22:00:40.891Z,2.67
2024-04-16T22:03:26.823Z,2.25
2024-04-16T22:06:12.612Z,1.25
2024-04-16T22:08:58.742Z,1.58
2024-04-16T22:11:44.969Z,0.98
2024-04-16T22:14:32.864Z,1.45
2024-04-16T22:17:18.763Z,1.92
2024-04-16T22:20:05.138Z,1.70
2024-04-16T22:22:51.133Z,1.33
2024-04-16T22:25:37.348Z,2.17
2024-04-16T22:28:23.528Z,0.95
2024-04-16T22:31:09.420Z,1.20
2024-04-16T22:33:55.299Z,0.95
2024-04-16T22:36:41.229Z,1.88
2024-04-16T22:39:27.061Z,1.25
2024-04-16T22:42:13.113Z,1.35
2024-04-16T22:44:58.834Z,0.75
2024-04-16T22:47:45.096Z,1.20
2024-04-16T22:50:33.667Z,0.85
2024-04-16T22:53:20.768Z,0.95
2024-04-16T22:56:07.036Z,1.33
2024-04-16T22:58:53.230Z,0.57
2024-04-16T23:01:39.256Z,2.17
2024-04-16T23:04:25.211Z,0.77
2024-04-16T23:07:11.135Z,1.25
2024-04-16T23:09:56.813Z,0.93
2024-04-16T23:12:42.749Z,0.80
2024-04-16T23:15:28.845Z,0.70
2024-04-16T23:18:15.032Z,1.08
2024-04-16T23:21:01.216Z,0.73
2024-04-16T23:23:46.923Z,0.77
2024-04-16T23:26:37.743Z,0.88
2024-04-16T23:29:23.816Z,1.33
2024-04-16T23:32:09.803Z,1.02
2024-04-16T23:34:55.929Z,1.73
2024-04-16T23:37:42.066Z,1.48
2024-04-16T23:40:28.263Z,1.58
2024-04-16T23:43:14.879Z,2.05
2024-04-16T23:46:05.176Z,0.95
2024-04-16T23:48:51.101Z,1.20
2024-04-16T23:51:37.134Z,0.73
2024-04-16T23:54:23.574Z,1.17
2024-04-16T23:57:09.609Z,3.97
2024-04-16T23:59:55.543Z,1.38
